Time;durP1;ratioP1;P1;durP2;ratioP2;P2;SDS_P1;SDS_P2;PMS_P1;PMS_P2;Temp;Humidity;BMP_temperature;BMP_pressure;BME280_temperature;BME280_humidity;BME280_pressure;Samples;Min_cycle;Max_cycle;Signal;HPM_P1;HPM_P2
2024/03/30 00:01:00;;;;;;;21.90;11.32;;;;;;;;;;4313748;32;318316;-77
2024/03/30 00:03:26;;;;;;;14.65;7.70;;;;;;;;;;4339496;32;319426;-78
2024/03/30 00:06:03;;;;;;;14.05;8.43;;;;;;;;;;4338990;32;318292;-78
2024/03/30 00:08:30;;;;;;;17.25;7.87;;;;;;;;;;4334007;33;318528;-77
2024/03/30 00:14:03;;;;;;;20.40;7.85;;;;;;;;;;4333578;32;351957;-76
2024/03/30 00:16:29;;;;;;;19.33;8.60;;;;;;;;;;4308685;32;418650;-78
2024/03/30 00:21:43;;;;;;;21.85;9.50;;;;;;;;;;4345445;32;317020;-78
2024/03/30 00:24:10;;;;;;;20.80;10.15;;;;;;;;;;4330308;32;317685;-77
2024/03/30 00:26:41;;;;;;;16.02;9.98;;;;;;;;;;4339143;32;318783;-76
2024/03/30 00:29:08;;;;;;;19.10;10.32;;;;;;;;;;4333825;32;318033;-76
2024/03/30 00:31:38;;;;;;;18.85;9.30;;;;;;;;;;4336143;32;317701;-76
2024/03/30 00:34:07;;;;;;;19.60;8.73;;;;;;;;;;4319318;32;317704;-77
2024/03/30 00:39:18;;;;;;;13.43;7.25;;;;;;;;;;4320324;32;318182;-77
2024/03/30 00:41:45;;;;;;;18.10;8.15;;;;;;;;;;4339014;32;317709;-77
2024/03/30 00:44:22;;;;;;;16.55;7.72;;;;;;;;;;4330650;32;318322;-77
2024/03/30 00:46:50;;;;;;;17.52;8.52;;;;;;;;;;4336039;32;320071;-77
2024/03/30 00:49:21;;;;;;;13.35;8.23;;;;;;;;;;4316284;32;317696;-77
2024/03/30 00:51:49;;;;;;;14.82;8.45;;;;;;;;;;4339259;32;317633;-77
2024/03/30 00:54:18;;;;;;;15.80;8.95;;;;;;;;;;4327148;32;317674;-77
2024/03/30 00:56:45;;;;;;;21.00;9.68;;;;;;;;;;4330024;32;317601;-77
2024/03/30 00:59:21;;;;;;;15.30;9.05;;;;;;;;;;4304867;32;316678;-79
2024/03/30 01:01:49;;;;;;;21.47;10.17;;;;;;;;;;4330611;32;318235;-77
2024/03/30 01:04:18;;;;;;;21.65;9.82;;;;;;;;;;4331146;32;318956;-77
2024/03/30 01:06:46;;;;;;;20.17;9.95;;;;;;;;;;4325393;32;348634;-78
2024/03/30 01:09:31;;;;;;;15.27;8.15;;;;;;;;;;4334064;32;317662;-77
2024/03/30 01:12:01;;;;;;;18.25;8.45;;;;;;;;;;4297554;32;317294;-77
2024/03/30 01:14:35;;;;;;;14.10;7.40;;;;;;;;;;4326890;32;317700;-77
2024/03/30 01:17:04;;;;;;;17.75;5.55;;;;;;;;;;4325471;32;317859;-78
2024/03/30 01:19:41;;;;;;;11.48;5.80;;;;;;;;;;4314483;32;355406;-78
2024/03/30 01:22:08;;;;;;;12.20;5.72;;;;;;;;;;4315017;32;318174;-78
2024/03/30 01:24:40;;;;;;;18.15;6.45;;;;;;;;;;4316762;32;318685;-78
2024/03/30 01:27:09;;;;;;;12.40;6.22;;;;;;;;;;4305725;32;317815;-78
2024/03/30 01:29:46;;;;;;;13.68;7.40;;;;;;;;;;4347097;32;317651;-78
2024/03/30 01:32:13;;;;;;;12.25;5.50;;;;;;;;;;4339471;32;318245;-77
2024/03/30 01:34:43;;;;;;;10.90;6.60;;;;;;;;;;4336563;32;317742;-77
2024/03/30 01:37:10;;;;;;;15.87;6.40;;;;;;;;;;4331109;32;318406;-77
2024/03/30 01:39:37;;;;;;;17.10;6.93;;;;;;;;;;4334040;32;318108;-77
2024/03/30 01:42:04;;;;;;;14.83;5.77;;;;;;;;;;4317316;32;318281;-78
2024/03/30 01:44:33;;;;;;;8.17;5.50;;;;;;;;;;4335112;32;317855;-78
2024/03/30 01:47:04;;;;;;;8.97;5.43;;;;;;;;;;4325871;32;317655;-78
2024/03/30 01:49:33;;;;;;;11.50;5.35;;;;;;;;;;4335584;32;316746;-77
2024/03/30 01:52:03;;;;;;;9.57;5.90;;;;;;;;;;4316541;32;333898;-77
2024/03/30 01:54:39;;;;;;;10.52;5.07;;;;;;;;;;4326955;32;316518;-76
2024/03/30 01:57:07;;;;;;;8.07;5.10;;;;;;;;;;4311103;32;317821;-78
2024/03/30 01:59:35;;;;;;;8.27;4.68;;;;;;;;;;4310426;33;317333;-77
2024/03/30 02:02:05;;;;;;;9.48;4.65;;;;;;;;;;4319863;32;317379;-79
2024/03/30 02:04:35;;;;;;;10.10;5.07;;;;;;;;;;4336528;32;317021;-77
2024/03/30 02:07:05;;;;;;;9.05;4.18;;;;;;;;;;4330066;32;317818;-77
2024/03/30 02:09:32;;;;;;;8.10;4.28;;;;;;;;;;4342837;32;316812;-77
2024/03/30 02:11:59;;;;;;;9.13;5.03;;;;;;;;;;4330479;32;317174;-77
2024/03/30 02:14:26;;;;;;;14.27;5.50;;;;;;;;;;4347404;32;317170;-77
2024/03/30 02:16:53;;;;;;;8.03;5.20;;;;;;;;;;4339939;32;318333;-77
2024/03/30 02:19:28;;;;;;;11.27;4.70;;;;;;;;;;4335763;32;316515;-78
2024/03/30 02:21:55;;;;;;;18.95;12.85;;;;;;;;;;4329133;32;318155;-78
2024/03/30 02:24:39;;;;;;;31.90;20.40;;;;;;;;;;4348383;32;318879;-78
2024/03/30 02:27:05;;;;;;;23.52;16.05;;;;;;;;;;4334585;32;319374;-77
2024/03/30 02:29:36;;;;;;;18.37;8.57;;;;;;;;;;4347452;32;317728;-77
2024/03/30 02:32:05;;;;;;;14.55;7.62;;;;;;;;;;4313020;32;318195;-78
2024/03/30 02:34:33;;;;;;;13.93;8.70;;;;;;;;;;4348025;32;316376;-78
2024/03/30 02:36:59;;;;;;;11.25;7.30;;;;;;;;;;4355047;32;317899;-77
2024/03/30 02:39:30;;;;;;;13.50;7.13;;;;;;;;;;4358897;32;316769;-79
2024/03/30 02:41:56;;;;;;;16.92;7.72;;;;;;;;;;4350924;32;373523;-78
2024/03/30 02:44:23;;;;;;;15.60;6.90;;;;;;;;;;4351020;32;317032;-78
2024/03/30 02:46:48;;;;;;;12.85;7.03;;;;;;;;;;4355001;32;316748;-78
2024/03/30 02:49:16;;;;;;;10.57;6.63;;;;;;;;;;4331991;32;318442;-77
2024/03/30 02:51:42;;;;;;;11.75;6.68;;;;;;;;;;4348650;32;317771;-78
2024/03/30 02:54:09;;;;;;;14.57;7.93;;;;;;;;;;4336914;32;318318;-77
2024/03/30 02:56:36;;;;;;;20.35;8.65;;;;;;;;;;4348067;32;318697;-77
2024/03/30 02:59:06;;;;;;;19.77;8.25;;;;;;;;;;4336139;32;317794;-78
2024/03/30 03:01:36;;;;;;;24.83;9.60;;;;;;;;;;4347308;32;349520;-78
2024/03/30 03:04:03;;;;;;;18.37;8.73;;;;;;;;;;4338255;32;318764;-77
2024/03/30 03:06:29;;;;;;;16.90;6.67;;;;;;;;;;4348562;32;318117;-76
2024/03/30 03:08:55;;;;;;;10.67;6.33;;;;;;;;;;4338093;32;318146;-78
2024/03/30 03:11:23;;;;;;;11.07;5.90;;;;;;;;;;4340601;32;316688;-77
2024/03/30 03:13:50;;;;;;;11.77;5.60;;;;;;;;;;4340582;32;316968;-77
2024/03/30 03:16:17;;;;;;;12.63;6.50;;;;;;;;;;4334100;32;417897;-77
2024/03/30 03:18:43;;;;;;;13.53;5.97;;;;;;;;;;4348131;32;317604;-78
2024/03/30 03:21:09;;;;;;;15.43;6.80;;;;;;;;;;4331938;32;318190;-78
2024/03/30 03:23:36;;;;;;;16.70;6.87;;;;;;;;;;4342917;32;318372;-78
2024/03/30 03:26:03;;;;;;;17.30;7.53;;;;;;;;;;4323360;32;332660;-78
2024/03/30 03:28:29;;;;;;;13.55;6.55;;;;;;;;;;4333320;32;318562;-78
2024/03/30 03:31:06;;;;;;;16.27;6.90;;;;;;;;;;4333543;32;318371;-77
2024/03/30 03:33:32;;;;;;;18.33;7.78;;;;;;;;;;4345848;32;350991;-77
2024/03/30 03:36:00;;;;;;;11.32;6.55;;;;;;;;;;4336895;32;325503;-77
2024/03/30 03:38:27;;;;;;;15.27;7.40;;;;;;;;;;4347940;32;318294;-77
2024/03/30 03:40:54;;;;;;;21.45;8.75;;;;;;;;;;4336423;32;318536;-77
2024/03/30 03:43:20;;;;;;;28.43;9.07;;;;;;;;;;4329075;32;318401;-78
2024/03/30 03:45:47;;;;;;;19.43;9.30;;;;;;;;;;4338164;32;318227;-78
2024/03/30 03:48:14;;;;;;;12.13;6.60;;;;;;;;;;4334584;32;318213;-78
2024/03/30 03:50:41;;;;;;;12.33;6.60;;;;;;;;;;4346425;32;318277;-78
2024/03/30 03:53:08;;;;;;;17.43;6.47;;;;;;;;;;4332185;32;318434;-78
2024/03/30 03:55:35;;;;;;;17.43;7.30;;;;;;;;;;4340262;32;317667;-77
2024/03/30 03:58:02;;;;;;;21.70;6.30;;;;;;;;;;4323438;32;318538;-77
2024/03/30 04:00:29;;;;;;;18.27;6.73;;;;;;;;;;4332189;32;342227;-77
2024/03/30 04:02:56;;;;;;;12.83;5.87;;;;;;;;;;4324212;32;317704;-78
2024/03/30 04:05:25;;;;;;;14.90;6.67;;;;;;;;;;4331170;32;318314;-78
2024/03/30 04:07:51;;;;;;;12.30;6.43;;;;;;;;;;4349520;32;321673;-77
2024/03/30 04:10:20;;;;;;;17.70;7.00;;;;;;;;;;4316862;32;374186;-76
2024/03/30 04:12:47;;;;;;;20.80;7.50;;;;;;;;;;4348517;32;316541;-76
2024/03/30 04:15:15;;;;;;;17.07;9.00;;;;;;;;;;4334200;32;317649;-78
2024/03/30 04:17:42;;;;;;;18.43;9.03;;;;;;;;;;4350162;32;317572;-77
2024/03/30 04:20:10;;;;;;;16.93;7.87;;;;;;;;;;4337547;32;317997;-77
2024/03/30 04:22:37;;;;;;;16.37;7.20;;;;;;;;;;4333708;32;318042;-77
2024/03/30 04:25:05;;;;;;;16.17;7.67;;;;;;;;;;4318148;32;318195;-77
2024/03/30 04:27:31;;;;;;;19.03;6.90;;;;;;;;;;4343816;32;318252;-77
2024/03/30 04:29:58;;;;;;;16.50;7.80;;;;;;;;;;4325561;32;318084;-77
2024/03/30 04:32:23;;;;;;;19.30;8.63;;;;;;;;;;4334301;32;318524;-78
2024/03/30 04:34:50;;;;;;;19.23;8.87;;;;;;;;;;4334392;32;317564;-78
2024/03/30 04:37:18;;;;;;;19.53;11.47;;;;;;;;;;4321238;32;317627;-78
2024/03/30 04:39:46;;;;;;;110.90;85.83;;;;;;;;;;4348714;32;318558;-77
2024/03/30 04:42:12;;;;;;;74.07;56.97;;;;;;;;;;4339087;32;320419;-78
2024/03/30 04:44:39;;;;;;;47.17;26.83;;;;;;;;;;4349854;32;319145;-78
2024/03/30 04:47:05;;;;;;;28.03;16.30;;;;;;;;;;4334083;32;319252;-76
2024/03/30 04:49:31;;;;;;;13.37;8.90;;;;;;;;;;4349168;32;319604;-76
2024/03/30 04:51:57;;;;;;;18.50;7.80;;;;;;;;;;4340072;32;318372;-76
2024/03/30 04:54:24;;;;;;;15.50;7.33;;;;;;;;;;4349640;32;317855;-76
2024/03/30 04:56:51;;;;;;;21.33;9.50;;;;;;;;;;4348977;32;318321;-78
2024/03/30 04:59:17;;;;;;;14.63;7.83;;;;;;;;;;4328586;32;419080;-77
2024/03/30 05:01:43;;;;;;;11.27;6.80;;;;;;;;;;4349958;32;318067;-77
2024/03/30 05:04:11;;;;;;;15.47;7.47;;;;;;;;;;4340426;32;318424;-77
2024/03/30 05:06:37;;;;;;;18.53;8.03;;;;;;;;;;4349998;32;317597;-77
2024/03/30 05:09:03;;;;;;;14.43;8.00;;;;;;;;;;4335436;32;318204;-77
2024/03/30 05:11:29;;;;;;;20.07;9.50;;;;;;;;;;4348408;32;318594;-77
2024/03/30 05:13:57;;;;;;;14.83;8.37;;;;;;;;;;4336932;32;336291;-77
2024/03/30 05:16:24;;;;;;;23.50;9.82;;;;;;;;;;4349594;32;318468;-78
2024/03/30 05:18:50;;;;;;;26.80;15.43;;;;;;;;;;4349001;32;318533;-77
2024/03/30 05:21:16;;;;;;;32.40;14.40;;;;;;;;;;4329325;32;419601;-77
2024/03/30 05:23:45;;;;;;;24.30;13.30;;;;;;;;;;4347524;32;345334;-78
2024/03/30 05:26:10;;;;;;;26.30;12.10;;;;;;;;;;4337639;32;319268;-78
2024/03/30 05:28:38;;;;;;;23.00;12.10;;;;;;;;;;4339549;32;319617;-77
2024/03/30 05:31:19;;;;;;;39.10;20.53;;;;;;;;;;4318224;32;322741;-77
2024/03/30 05:33:47;;;;;;;31.00;15.25;;;;;;;;;;4332696;32;332362;-77
2024/03/30 05:36:14;;;;;;;30.43;15.30;;;;;;;;;;4323619;32;319046;-78
2024/03/30 05:38:42;;;;;;;36.40;17.17;;;;;;;;;;4333255;32;319116;-78
2024/03/30 05:41:09;;;;;;;28.80;17.52;;;;;;;;;;4317677;32;319261;-79
2024/03/30 05:43:36;;;;;;;29.53;19.13;;;;;;;;;;4347825;32;319282;-78
2024/03/30 05:46:02;;;;;;;35.10;19.00;;;;;;;;;;4338389;32;319670;-77
2024/03/30 05:48:30;;;;;;;42.60;20.50;;;;;;;;;;4349418;32;319276;-77
2024/03/30 05:50:56;;;;;;;56.07;23.97;;;;;;;;;;4339402;32;319546;-77
2024/03/30 05:53:22;;;;;;;76.60;24.77;;;;;;;;;;4342503;32;318649;-78
2024/03/30 05:55:48;;;;;;;61.97;23.93;;;;;;;;;;4341711;32;336184;-77
2024/03/30 05:58:16;;;;;;;49.83;23.50;;;;;;;;;;4323813;32;319396;-77
2024/03/30 06:00:42;;;;;;;48.97;22.50;;;;;;;;;;4334213;32;318844;-77
2024/03/30 06:03:10;;;;;;;38.03;20.20;;;;;;;;;;4317823;32;319552;-77
2024/03/30 06:05:41;;;;;;;39.10;17.33;;;;;;;;;;4347849;32;318642;-77
2024/03/30 06:08:09;;;;;;;23.27;14.97;;;;;;;;;;4338828;32;319318;-77
2024/03/30 06:10:35;;;;;;;28.03;13.53;;;;;;;;;;4347922;32;319409;-77
2024/03/30 06:13:02;;;;;;;19.93;10.07;;;;;;;;;;4337182;32;319566;-78
2024/03/30 06:15:28;;;;;;;20.00;9.77;;;;;;;;;;4346379;32;319282;-77
2024/03/30 06:17:54;;;;;;;17.62;6.68;;;;;;;;;;4338765;32;317532;-77
2024/03/30 06:20:20;;;;;;;10.48;7.53;;;;;;;;;;4349048;32;318173;-78
2024/03/30 06:22:48;;;;;;;13.55;7.37;;;;;;;;;;4348519;32;318229;-77
2024/03/30 06:25:14;;;;;;;14.80;8.25;;;;;;;;;;4331656;32;318425;-77
2024/03/30 06:27:40;;;;;;;17.33;8.02;;;;;;;;;;4347981;32;318360;-77
2024/03/30 06:30:07;;;;;;;21.58;9.65;;;;;;;;;;4338324;32;318336;-77
2024/03/30 06:32:34;;;;;;;14.95;9.27;;;;;;;;;;4339761;32;317418;-78
2024/03/30 06:35:00;;;;;;;21.75;8.48;;;;;;;;;;4337520;32;318412;-78
2024/03/30 06:37:26;;;;;;;23.90;8.83;;;;;;;;;;4341747;32;318421;-77
2024/03/30 06:45:23;;;;;;;17.47;8.97;;;;;;;;;;4323402;32;387834;-78
2024/03/30 06:47:52;;;;;;;12.85;8.30;;;;;;;;;;4346018;32;318253;-78
2024/03/30 06:50:18;;;;;;;21.05;8.55;;;;;;;;;;4331695;32;417487;-79
2024/03/30 06:52:45;;;;;;;16.27;8.55;;;;;;;;;;4349867;32;318108;-79
2024/03/30 06:55:15;;;;;;;15.55;8.30;;;;;;;;;;4331805;32;317508;-77
2024/03/30 06:57:43;;;;;;;15.57;7.07;;;;;;;;;;4347751;32;318121;-75
2024/03/30 07:00:10;;;;;;;24.05;8.43;;;;;;;;;;4337234;32;318292;-75
2024/03/30 07:02:36;;;;;;;18.17;7.72;;;;;;;;;;4348546;32;318181;-75
2024/03/30 07:05:06;;;;;;;13.43;6.40;;;;;;;;;;4335937;32;318088;-77
2024/03/30 07:07:32;;;;;;;10.57;5.93;;;;;;;;;;4346945;32;318193;-75
2024/03/30 07:09:59;;;;;;;12.88;6.50;;;;;;;;;;4334632;32;318093;-76
2024/03/30 07:12:27;;;;;;;15.40;6.60;;;;;;;;;;4345587;32;317419;-79
2024/03/30 07:14:55;;;;;;;22.27;7.47;;;;;;;;;;4335199;32;317820;-79
2024/03/30 07:17:21;;;;;;;18.52;8.45;;;;;;;;;;4338653;32;318460;-78
2024/03/30 07:19:50;;;;;;;19.15;7.37;;;;;;;;;;4346961;32;318285;-80
2024/03/30 07:22:17;;;;;;;17.58;7.18;;;;;;;;;;4333043;32;418616;-79
2024/03/30 07:24:44;;;;;;;12.75;6.72;;;;;;;;;;4332321;32;318944;-79
2024/03/30 07:27:12;;;;;;;16.83;8.68;;;;;;;;;;4315798;32;318416;-78
2024/03/30 07:29:41;;;;;;;24.90;8.93;;;;;;;;;;4346987;32;317911;-78
2024/03/30 07:32:09;;;;;;;12.90;7.77;;;;;;;;;;4328766;32;347149;-78
2024/03/30 07:34:38;;;;;;;12.65;7.55;;;;;;;;;;4338973;32;317466;-80
2024/03/30 07:37:04;;;;;;;12.82;6.45;;;;;;;;;;4316154;32;318275;-78
2024/03/30 07:39:30;;;;;;;13.52;6.90;;;;;;;;;;4344274;32;318394;-79
2024/03/30 07:41:57;;;;;;;16.12;6.45;;;;;;;;;;4331228;32;318923;-79
2024/03/30 07:44:27;;;;;;;12.27;5.65;;;;;;;;;;4350959;32;317886;-78
2024/03/30 07:46:57;;;;;;;13.88;4.97;;;;;;;;;;4341272;32;331544;-78
2024/03/30 07:49:24;;;;;;;11.80;5.53;;;;;;;;;;4334803;32;317768;-79
2024/03/30 07:51:50;;;;;;;6.95;4.57;;;;;;;;;;4349756;32;317696;-77
2024/03/30 07:54:17;;;;;;;22.23;5.65;;;;;;;;;;4336531;32;372722;-78
2024/03/30 07:56:53;;;;;;;23.20;4.57;;;;;;;;;;4343203;32;318366;-78
2024/03/30 07:59:20;;;;;;;21.48;4.55;;;;;;;;;;4331716;32;419063;-80
2024/03/30 08:01:47;;;;;;;14.95;4.47;;;;;;;;;;4349593;32;318508;-78
2024/03/30 08:04:17;;;;;;;16.65;4.47;;;;;;;;;;4337680;32;318100;-78
2024/03/30 08:06:43;;;;;;;13.07;3.65;;;;;;;;;;4347658;32;318371;-77
2024/03/30 08:09:11;;;;;;;4.47;2.42;;;;;;;;;;4333929;32;318299;-77
2024/03/30 08:11:38;;;;;;;10.55;2.65;;;;;;;;;;4349846;32;316507;-77
2024/03/30 08:14:05;;;;;;;7.97;3.08;;;;;;;;;;4337834;32;317978;-77
2024/03/30 08:16:32;;;;;;;7.70;2.47;;;;;;;;;;4345219;32;317266;-78
2024/03/30 08:19:03;;;;;;;10.50;2.08;;;;;;;;;;4340492;32;316939;-77
2024/03/30 08:21:32;;;;;;;5.75;2.20;;;;;;;;;;4344080;32;317721;-78
2024/03/30 08:24:02;;;;;;;10.20;3.08;;;;;;;;;;4326108;32;317320;-77
2024/03/30 08:26:28;;;;;;;13.43;2.40;;;;;;;;;;4334825;32;318313;-77
2024/03/30 08:28:55;;;;;;;10.20;3.05;;;;;;;;;;4324997;32;318242;-77
2024/03/30 08:31:22;;;;;;;13.52;3.35;;;;;;;;;;4325882;32;317758;-77
2024/03/30 08:33:50;;;;;;;6.70;2.40;;;;;;;;;;4333624;32;316797;-78
2024/03/30 08:36:16;;;;;;;6.87;2.80;;;;;;;;;;4333331;32;415945;-78
2024/03/30 08:38:44;;;;;;;10.93;3.15;;;;;;;;;;4333642;32;317375;-77
2024/03/30 08:41:10;;;;;;;8.48;2.53;;;;;;;;;;4312298;32;318435;-77
2024/03/30 08:43:37;;;;;;;9.52;3.10;;;;;;;;;;4319806;33;317295;-77
2024/03/30 08:46:04;;;;;;;7.97;2.40;;;;;;;;;;4310408;33;317128;-77
2024/03/30 08:48:33;;;;;;;7.78;2.58;;;;;;;;;;4318677;33;316417;-76
2024/03/30 08:50:59;;;;;;;6.25;2.35;;;;;;;;;;4310660;33;317251;-78
2024/03/30 08:53:26;;;;;;;9.30;2.85;;;;;;;;;;4323261;32;316906;-78
2024/03/30 08:55:59;;;;;;;11.48;2.35;;;;;;;;;;4323060;32;317273;-77
2024/03/30 08:58:26;;;;;;;7.70;2.60;;;;;;;;;;4334029;32;318988;-77
2024/03/30 09:00:52;;;;;;;16.20;3.22;;;;;;;;;;4325396;32;317176;-77
2024/03/30 09:03:20;;;;;;;12.27;2.97;;;;;;;;;;4328861;32;318134;-77
2024/03/30 09:05:46;;;;;;;9.82;3.03;;;;;;;;;;4333834;32;318371;-77
2024/03/30 09:08:14;;;;;;;8.38;2.53;;;;;;;;;;4322459;32;317225;-77
2024/03/30 09:10:42;;;;;;;8.88;2.92;;;;;;;;;;4333848;32;316590;-77
2024/03/30 09:13:10;;;;;;;9.23;2.80;;;;;;;;;;4323293;32;316736;-77
2024/03/30 09:15:36;;;;;;;3.72;1.80;;;;;;;;;;4337997;32;315473;-78
2024/03/30 09:18:03;;;;;;;10.35;2.28;;;;;;;;;;4338686;32;317372;-77
2024/03/30 09:20:28;;;;;;;6.78;2.20;;;;;;;;;;4349537;32;317758;-77
2024/03/30 09:22:56;;;;;;;9.73;1.95;;;;;;;;;;4316054;32;385204;-77
2024/03/30 09:25:22;;;;;;;6.70;1.92;;;;;;;;;;4342430;32;317415;-77
2024/03/30 09:27:49;;;;;;;8.68;2.60;;;;;;;;;;4348441;32;316236;-78
2024/03/30 09:30:16;;;;;;;12.25;1.98;;;;;;;;;;4333472;32;317535;-78
2024/03/30 09:32:44;;;;;;;9.02;1.73;;;;;;;;;;4344456;32;318411;-78
2024/03/30 09:35:10;;;;;;;6.78;2.67;;;;;;;;;;4331746;32;329802;-78
2024/03/30 09:37:37;;;;;;;6.37;2.47;;;;;;;;;;4345687;32;359031;-78
2024/03/30 09:40:04;;;;;;;7.70;2.35;;;;;;;;;;4327765;32;317141;-78
2024/03/30 09:42:32;;;;;;;7.47;2.40;;;;;;;;;;4343085;32;316505;-78
2024/03/30 09:45:00;;;;;;;5.87;2.20;;;;;;;;;;4330082;32;317119;-79
2024/03/30 09:47:30;;;;;;;14.35;3.22;;;;;;;;;;4338311;32;325791;-78
2024/03/30 09:50:01;;;;;;;11.05;2.78;;;;;;;;;;4334318;32;318352;-79
2024/03/30 09:52:29;;;;;;;8.63;2.10;;;;;;;;;;4348095;32;318565;-78
2024/03/30 09:54:58;;;;;;;7.10;2.08;;;;;;;;;;4336462;32;317472;-78
2024/03/30 09:57:25;;;;;;;10.50;2.42;;;;;;;;;;4334936;32;316450;-78
2024/03/30 09:59:52;;;;;;;4.22;1.60;;;;;;;;;;4324871;32;318447;-79
2024/03/30 10:02:18;;;;;;;11.27;2.85;;;;;;;;;;4339154;32;322295;-78
2024/03/30 10:04:45;;;;;;;15.90;2.60;;;;;;;;;;4347712;32;318185;-78
2024/03/30 10:07:15;;;;;;;5.45;2.47;;;;;;;;;;4325870;32;317695;-78
2024/03/30 10:09:41;;;;;;;12.93;4.05;;;;;;;;;;4345356;32;316579;-79
2024/03/30 10:12:16;;;;;;;9.18;3.05;;;;;;;;;;4338197;32;318348;-79
2024/03/30 10:14:44;;;;;;;6.55;2.40;;;;;;;;;;4344503;32;317128;-79
2024/03/30 10:17:11;;;;;;;4.03;1.85;;;;;;;;;;4330169;32;317454;-79
2024/03/30 10:19:39;;;;;;;11.63;2.50;;;;;;;;;;4343513;32;317356;-78
2024/03/30 10:22:08;;;;;;;7.20;2.25;;;;;;;;;;4333653;32;318797;-77
2024/03/30 10:24:35;;;;;;;10.30;3.17;;;;;;;;;;4345652;32;317175;-78
2024/03/30 10:27:03;;;;;;;7.68;2.70;;;;;;;;;;4329522;32;342986;-76
2024/03/30 10:29:29;;;;;;;6.87;2.67;;;;;;;;;;4337250;32;347489;-76
2024/03/30 10:31:55;;;;;;;8.95;2.70;;;;;;;;;;4331925;32;331249;-76
2024/03/30 10:34:21;;;;;;;5.53;2.92;;;;;;;;;;4346751;32;317206;-76
2024/03/30 10:36:48;;;;;;;10.52;2.47;;;;;;;;;;4346625;32;316487;-77
2024/03/30 10:39:15;;;;;;;4.62;2.33;;;;;;;;;;4329438;32;318460;-77
2024/03/30 10:41:42;;;;;;;8.40;2.40;;;;;;;;;;4345981;32;317612;-77
2024/03/30 10:44:08;;;;;;;5.97;2.15;;;;;;;;;;4337524;32;317126;-77
2024/03/30 10:46:35;;;;;;;8.05;2.90;;;;;;;;;;4346100;32;316723;-76
2024/03/30 10:49:01;;;;;;;13.50;3.08;;;;;;;;;;4334941;32;317159;-76
2024/03/30 10:51:28;;;;;;;6.57;2.58;;;;;;;;;;4341463;32;318306;-76
2024/03/30 10:54:04;;;;;;;11.12;2.40;;;;;;;;;;4335550;32;317556;-75
2024/03/30 10:56:32;;;;;;;6.12;2.30;;;;;;;;;;4325740;32;318186;-75
2024/03/30 10:59:00;;;;;;;9.50;2.03;;;;;;;;;;4334605;32;316627;-75
2024/03/30 11:01:30;;;;;;;6.80;2.33;;;;;;;;;;4330322;32;317384;-75
2024/03/30 11:03:56;;;;;;;12.37;2.05;;;;;;;;;;4313360;32;317323;-76
2024/03/30 11:06:24;;;;;;;11.30;2.37;;;;;;;;;;4332079;32;317523;-75
2024/03/30 11:08:52;;;;;;;5.95;2.58;;;;;;;;;;4317940;32;318630;-76
2024/03/30 11:11:20;;;;;;;5.60;2.55;;;;;;;;;;4296285;32;417537;-76
2024/03/30 11:13:47;;;;;;;9.25;1.75;;;;;;;;;;4320693;32;317251;-76
2024/03/30 11:16:14;;;;;;;10.00;2.00;;;;;;;;;;4320827;32;317317;-76
2024/03/30 11:18:48;;;;;;;4.85;1.70;;;;;;;;;;4331637;32;317482;-77
2024/03/30 11:21:20;;;;;;;7.95;1.55;;;;;;;;;;4314344;32;317275;-77
2024/03/30 11:23:52;;;;;;;4.62;1.48;;;;;;;;;;4330770;32;317243;-77
2024/03/30 11:26:23;;;;;;;7.75;1.52;;;;;;;;;;4318298;32;416431;-76
2024/03/30 11:28:59;;;;;;;12.57;3.47;;;;;;;;;;4331319;32;317587;-77
2024/03/30 11:31:34;;;;;;;9.15;1.45;;;;;;;;;;4313399;32;417351;-76
2024/03/30 11:34:03;;;;;;;4.25;1.45;;;;;;;;;;4322301;32;317441;-77
2024/03/30 11:36:36;;;;;;;5.68;1.75;;;;;;;;;;4333098;32;317458;-79
2024/03/30 11:39:15;;;;;;;7.15;1.73;;;;;;;;;;4323008;32;316669;-80
2024/03/30 11:41:45;;;;;;;8.82;1.77;;;;;;;;;;4327746;32;317297;-78
2024/03/30 11:44:18;;;;;;;11.82;2.03;;;;;;;;;;4308053;32;317342;-79
2024/03/30 11:46:46;;;;;;;4.45;1.40;;;;;;;;;;4317079;32;318472;-79
2024/03/30 11:49:13;;;;;;;6.97;1.30;;;;;;;;;;4300022;32;317407;-79
2024/03/30 11:51:41;;;;;;;4.12;1.02;;;;;;;;;;4328194;32;317238;-79
2024/03/30 11:54:20;;;;;;;1.80;0.85;;;;;;;;;;4321416;32;334779;-79
2024/03/30 11:57:04;;;;;;;3.15;1.00;;;;;;;;;;4337156;32;317611;-79
2024/03/30 11:59:38;;;;;;;7.75;0.93;;;;;;;;;;4328863;32;417827;-79
2024/03/30 12:02:07;;;;;;;2.42;0.80;;;;;;;;;;4334045;32;317738;-79
2024/03/30 12:04:37;;;;;;;1.60;0.80;;;;;;;;;;4342178;32;317601;-78
2024/03/30 12:07:07;;;;;;;4.60;1.02;;;;;;;;;;4332317;32;317240;-79
2024/03/30 12:09:32;;;;;;;5.55;1.20;;;;;;;;;;4348617;32;317343;-79
2024/03/30 12:12:15;;;;;;;3.85;0.90;;;;;;;;;;4336967;32;317321;-78
2024/03/30 12:14:42;;;;;;;6.85;1.52;;;;;;;;;;4344385;32;317807;-79
2024/03/30 12:17:09;;;;;;;5.15;1.50;;;;;;;;;;4322515;32;317486;-78
2024/03/30 12:19:35;;;;;;;4.72;1.08;;;;;;;;;;4329973;33;353108;-79
2024/03/30 12:22:02;;;;;;;3.80;1.25;;;;;;;;;;4318790;33;326521;-78
2024/03/30 12:24:27;;;;;;;1.75;0.70;;;;;;;;;;4330790;32;317229;-78
2024/03/30 12:26:55;;;;;;;3.42;0.90;;;;;;;;;;4323855;32;317218;-79
2024/03/30 12:29:21;;;;;;;3.67;1.00;;;;;;;;;;4325778;32;317320;-78
2024/03/30 12:31:49;;;;;;;3.03;1.25;;;;;;;;;;4331536;32;317524;-79
2024/03/30 12:34:15;;;;;;;6.68;0.77;;;;;;;;;;4323884;32;329281;-79
2024/03/30 12:36:42;;;;;;;2.30;1.00;;;;;;;;;;4333351;32;323306;-79
2024/03/30 12:39:08;;;;;;;4.12;1.30;;;;;;;;;;4335328;32;332914;-79
2024/03/30 12:41:35;;;;;;;6.78;1.48;;;;;;;;;;4349343;32;317146;-78
2024/03/30 12:44:02;;;;;;;2.75;1.27;;;;;;;;;;4324977;32;317124;-79
2024/03/30 12:46:29;;;;;;;6.75;1.15;;;;;;;;;;4334261;32;317496;-79
2024/03/30 12:49:01;;;;;;;1.45;0.80;;;;;;;;;;4335950;32;317086;-78
2024/03/30 12:51:28;;;;;;;3.83;1.87;;;;;;;;;;4345921;32;315800;-78
2024/03/30 12:53:54;;;;;;;6.25;1.00;;;;;;;;;;4351619;32;315575;-78
2024/03/30 12:56:22;;;;;;;1.60;1.15;;;;;;;;;;4364644;32;315623;-78
2024/03/30 12:58:49;;;;;;;5.22;1.10;;;;;;;;;;4364932;32;357167;-79
2024/03/30 13:01:16;;;;;;;5.25;0.98;;;;;;;;;;4347810;32;317063;-80
2024/03/30 13:03:41;;;;;;;6.57;1.33;;;;;;;;;;4353534;32;317436;-79
2024/03/30 13:06:11;;;;;;;7.12;1.00;;;;;;;;;;4341660;32;317571;-79
2024/03/30 13:08:43;;;;;;;4.05;1.27;;;;;;;;;;4350001;32;317345;-79
2024/03/30 13:11:10;;;;;;;4.00;1.05;;;;;;;;;;4335480;32;316538;-79
2024/03/30 13:13:37;;;;;;;15.13;1.37;;;;;;;;;;4355756;32;317059;-78
2024/03/30 13:16:06;;;;;;;6.28;2.17;;;;;;;;;;4339018;32;317526;-78
2024/03/30 13:18:32;;;;;;;2.92;1.35;;;;;;;;;;4348433;32;316675;-78
2024/03/30 13:21:03;;;;;;;7.12;1.70;;;;;;;;;;4339027;32;317148;-79
2024/03/30 13:23:31;;;;;;;1.83;0.88;;;;;;;;;;4350055;32;316552;-79
2024/03/30 13:25:57;;;;;;;5.65;1.35;;;;;;;;;;4340964;32;317212;-79
2024/03/30 13:28:23;;;;;;;4.47;1.20;;;;;;;;;;4351307;32;316668;-79
2024/03/30 13:30:51;;;;;;;5.85;1.00;;;;;;;;;;4350836;32;317476;-79
2024/03/30 13:33:18;;;;;;;2.97;1.10;;;;;;;;;;4327604;32;416784;-79
2024/03/30 13:35:45;;;;;;;3.78;1.30;;;;;;;;;;4349743;32;317539;-79
2024/03/30 13:38:11;;;;;;;11.02;1.62;;;;;;;;;;4338830;32;317361;-79
2024/03/30 13:40:39;;;;;;;7.10;1.50;;;;;;;;;;4350843;32;318174;-78
2024/03/30 13:43:05;;;;;;;5.12;1.80;;;;;;;;;;4335094;32;317280;-79
2024/03/30 13:45:33;;;;;;;4.78;1.52;;;;;;;;;;4351071;32;316597;-79
2024/03/30 13:48:00;;;;;;;4.05;0.95;;;;;;;;;;4340714;32;317535;-79
2024/03/30 13:50:26;;;;;;;4.65;1.80;;;;;;;;;;4351308;32;317516;-79
2024/03/30 13:52:52;;;;;;;6.43;1.95;;;;;;;;;;4341632;32;316910;-79
2024/03/30 13:55:19;;;;;;;4.25;1.73;;;;;;;;;;4348476;32;317122;-79
2024/03/30 13:57:48;;;;;;;5.78;1.40;;;;;;;;;;4356351;32;317184;-79
2024/03/30 14:00:16;;;;;;;7.20;1.35;;;;;;;;;;4346280;32;317390;-79
2024/03/30 14:02:41;;;;;;;7.90;1.52;;;;;;;;;;4356811;32;317424;-79
2024/03/30 14:05:08;;;;;;;7.05;1.30;;;;;;;;;;4339814;32;316616;-79
2024/03/30 14:07:34;;;;;;;7.87;1.20;;;;;;;;;;4349657;32;318325;-78
2024/03/30 14:10:03;;;;;;;5.80;1.50;;;;;;;;;;4322646;32;357240;-78
2024/03/30 14:12:28;;;;;;;4.82;1.50;;;;;;;;;;4326171;32;316999;-78
2024/03/30 14:14:58;;;;;;;2.33;1.48;;;;;;;;;;4310938;32;317380;-78
2024/03/30 14:17:23;;;;;;;4.95;2.08;;;;;;;;;;4327940;32;317263;-79
2024/03/30 14:19:50;;;;;;;3.15;1.25;;;;;;;;;;4334086;32;317409;-79
2024/03/30 14:22:16;;;;;;;7.53;1.60;;;;;;;;;;4335814;32;416520;-78
2024/03/30 14:24:43;;;;;;;4.87;1.52;;;;;;;;;;4348453;32;317410;-78
2024/03/30 14:27:09;;;;;;;4.47;1.58;;;;;;;;;;4331917;32;321715;-80
2024/03/30 14:29:35;;;;;;;6.37;1.67;;;;;;;;;;4346274;32;317383;-79
2024/03/30 14:32:03;;;;;;;9.85;2.15;;;;;;;;;;4322156;32;317760;-79
2024/03/30 14:34:30;;;;;;;6.20;2.15;;;;;;;;;;4332821;32;317397;-79
2024/03/30 14:36:55;;;;;;;4.62;2.05;;;;;;;;;;4322650;32;317358;-79
2024/03/30 14:39:22;;;;;;;6.75;1.90;;;;;;;;;;4326030;32;316688;-79